createdAt,value
2022-07-30T00:00:50.906Z,62.87
2022-07-30T00:01:53.261Z,63.10
2022-07-30T00:02:56.168Z,62.80
2022-07-30T00:03:58.114Z,63.12
2022-07-30T00:05:01.125Z,62.80
2022-07-30T00:06:04.150Z,62.61
2022-07-30T00:07:06.278Z,62.90
2022-07-30T00:08:09.207Z,63.08
2022-07-30T00:09:11.267Z,62.83
2022-07-30T00:10:14.226Z,63.03
2022-07-30T00:11:17.354Z,63.28
2022-07-30T00:12:20.261Z,62.71
2022-07-30T00:13:22.149Z,63.04
2022-07-30T00:14:25.919Z,63.06
2022-07-30T00:15:29.496Z,63.31
2022-07-30T00:16:32.549Z,63.18
2022-07-30T00:17:34.443Z,62.78
2022-07-30T00:18:37.623Z,62.83
2022-07-30T00:19:40.748Z,63.00
2022-07-30T00:20:44.401Z,62.86
2022-07-30T00:21:46.949Z,63.27
2022-07-30T00:22:51.008Z,62.69
2022-07-30T00:24:01.917Z,63.11
2022-07-30T00:25:06.809Z,63.20
2022-07-30T00:26:08.873Z,63.05
2022-07-30T00:27:11.723Z,62.66
2022-07-30T00:28:16.773Z,62.91
2022-07-30T00:29:18.777Z,63.22
2022-07-30T00:30:21.887Z,62.83
2022-07-30T00:31:25.393Z,63.12
2022-07-30T00:32:28.235Z,63.21
2022-07-30T00:33:30.173Z,63.18
2022-07-30T00:34:33.126Z,63.49
2022-07-30T00:35:35.442Z,63.08
2022-07-30T00:36:38.334Z,62.99
2022-07-30T00:37:41.373Z,62.59
2022-07-30T00:38:44.290Z,62.99
2022-07-30T00:39:46.132Z,63.01
2022-07-30T00:40:49.156Z,63.09
2022-07-30T00:41:56.844Z,62.78
2022-07-30T00:42:59.886Z,62.74
2022-07-30T00:44:01.791Z,62.77
2022-07-30T00:45:05.200Z,62.85
2022-07-30T00:46:07.212Z,62.54
2022-07-30T00:47:11.520Z,62.87
2022-07-30T00:48:14.449Z,63.06
2022-07-30T00:49:17.495Z,63.07
2022-07-30T00:50:19.631Z,62.98
2022-07-30T00:51:24.517Z,62.80
2022-07-30T00:52:26.457Z,62.44
2022-07-30T00:53:29.360Z,62.50
2022-07-30T00:54:31.316Z,62.77
2022-07-30T00:55:35.641Z,62.81
2022-07-30T00:56:37.554Z,62.82
2022-07-30T00:57:41.978Z,62.51
2022-07-30T00:58:43.882Z,62.38
2022-07-30T00:59:46.725Z,62.81
2022-07-30T01:00:48.681Z,62.71
2022-07-30T01:01:52.269Z,62.72
2022-07-30T01:02:55.685Z,62.34
2022-07-30T01:03:58.545Z,62.77
2022-07-30T01:05:00.473Z,62.83
2022-07-30T01:06:03.393Z,62.68
2022-07-30T01:07:05.257Z,62.87
2022-07-30T01:08:08.228Z,62.62
2022-07-30T01:09:10.292Z,62.64
2022-07-30T01:10:15.429Z,62.62
2022-07-30T01:11:17.396Z,62.53
2022-07-30T01:12:21.948Z,62.45
2022-07-30T01:13:25.172Z,62.64
2022-07-30T01:14:27.065Z,62.98
2022-07-30T01:15:30.723Z,62.30
2022-07-30T01:16:33.055Z,62.92
2022-07-30T01:17:36.850Z,62.94
2022-07-30T01:19:00.935Z,62.95
2022-07-30T01:20:08.319Z,63.18
2022-07-30T01:21:15.784Z,63.05
2022-07-30T01:22:24.686Z,62.52
2022-07-30T01:23:39.272Z,63.11
2022-07-30T01:24:55.839Z,62.97
2022-07-30T01:26:05.480Z,63.10
2022-07-30T01:27:08.755Z,62.60
2022-07-30T01:28:14.113Z,62.54
2022-07-30T01:29:22.896Z,63.19
2022-07-30T01:30:30.111Z,62.75
2022-07-30T01:31:33.986Z,62.66
2022-07-30T01:32:42.852Z,62.84
2022-07-30T01:33:47.519Z,62.86
2022-07-30T01:34:51.276Z,62.92
2022-07-30T01:35:55.441Z,63.07
2022-07-30T01:37:00.578Z,63.16
2022-07-30T01:38:05.725Z,63.26
2022-07-30T01:39:08.866Z,62.95
2022-07-30T01:40:14.630Z,62.94
2022-07-30T01:41:19.545Z,63.03
2022-07-30T01:42:25.844Z,62.93
2022-07-30T01:43:28.795Z,62.59
2022-07-30T01:44:33.213Z,63.22
2022-07-30T01:45:42.191Z,62.56
2022-07-30T01:46:49.304Z,62.85
2022-07-30T01:47:53.323Z,62.30
2022-07-30T01:48:59.232Z,62.42
2022-07-30T01:50:06.433Z,62.89
2022-07-30T01:51:14.758Z,62.78
2022-07-30T01:52:22.587Z,62.11
2022-07-30T01:53:28.196Z,62.71
2022-07-30T01:54:33.311Z,62.38
2022-07-30T01:55:38.092Z,62.78
2022-07-30T01:56:42.631Z,62.00
2022-07-30T01:57:48.147Z,62.32
2022-07-30T01:58:52.451Z,62.52
2022-07-30T02:00:03.134Z,62.42
2022-07-30T02:01:18.715Z,62.66
2022-07-30T02:02:21.998Z,62.33
2022-07-30T02:03:24.489Z,62.31
2022-07-30T02:04:29.427Z,62.13
2022-07-30T02:05:34.287Z,62.11
2022-07-30T02:06:43.090Z,62.50
2022-07-30T02:07:56.171Z,62.13
2022-07-30T02:09:10.674Z,62.27
2022-07-30T02:10:19.313Z,62.22
2022-07-30T02:11:37.944Z,62.25
2022-07-30T02:12:47.277Z,62.35
2022-07-30T02:13:53.223Z,62.08
2022-07-30T02:15:04.434Z,62.58
2022-07-30T02:16:12.359Z,61.70
2022-07-30T02:17:19.394Z,62.30
2022-07-30T02:18:29.105Z,62.07
2022-07-30T02:19:42.640Z,62.50
2022-07-30T02:21:00.063Z,61.87
2022-07-30T02:22:08.731Z,62.34
2022-07-30T02:23:16.232Z,62.10
2022-07-30T02:24:22.072Z,61.86
2022-07-30T02:25:26.524Z,62.40
2022-07-30T02:26:30.641Z,61.75
2022-07-30T02:27:36.306Z,61.75
2022-07-30T02:28:45.017Z,62.07
2022-07-30T02:29:48.784Z,62.00
2022-07-30T02:30:55.324Z,61.54
2022-07-30T02:31:59.713Z,61.39
2022-07-30T02:33:10.578Z,61.52
2022-07-30T02:34:14.437Z,62.15
2022-07-30T02:35:21.128Z,61.95
2022-07-30T02:36:25.737Z,61.93
2022-07-30T02:37:43.385Z,61.56
2022-07-30T02:38:47.423Z,61.63
2022-07-30T02:39:52.057Z,61.91
2022-07-30T02:40:57.699Z,61.44
2022-07-30T02:42:00.670Z,62.17
2022-07-30T02:43:04.257Z,62.24
2022-07-30T02:44:10.499Z,62.01
2022-07-30T02:45:16.039Z,61.50
2022-07-30T02:46:20.829Z,61.75
2022-07-30T02:47:42.909Z,61.49
2022-07-30T02:48:47.852Z,61.51
2022-07-30T02:49:51.306Z,61.86
2022-07-30T02:50:55.677Z,61.41
2022-07-30T02:51:59.115Z,61.58
2022-07-30T02:53:03.832Z,62.00
2022-07-30T02:54:08.033Z,61.42
2022-07-30T02:55:13.630Z,61.57
2022-07-30T02:56:17.445Z,61.23
2022-07-30T02:57:22.297Z,61.61
2022-07-30T02:58:27.163Z,61.75
2022-07-30T02:59:31.679Z,61.71
2022-07-30T03:00:36.356Z,61.27
2022-07-30T03:01:38.852Z,61.69
2022-07-30T03:02:43.560Z,61.68
2022-07-30T03:03:47.427Z,61.31
2022-07-30T03:04:50.591Z,62.39
2022-07-30T03:05:53.009Z,61.25
2022-07-30T03:06:57.043Z,61.19
2022-07-30T03:08:00.218Z,61.63
2022-07-30T03:09:04.510Z,61.66
2022-07-30T03:10:07.780Z,61.07
2022-07-30T03:11:11.941Z,61.13
2022-07-30T03:12:16.733Z,61.19
2022-07-30T03:13:22.916Z,61.03
2022-07-30T03:14:24.992Z,61.22
2022-07-30T03:15:30.738Z,61.29
2022-07-30T03:16:36.983Z,61.25
2022-07-30T03:17:44.109Z,61.23
2022-07-30T03:18:47.844Z,61.64
2022-07-30T03:19:53.320Z,61.58
2022-07-30T03:20:59.511Z,61.38
2022-07-30T03:22:04.391Z,61.11
2022-07-30T03:23:08.201Z,61.36
2022-07-30T03:24:13.344Z,61.61
2022-07-30T03:25:19.612Z,61.48
2022-07-30T03:26:23.859Z,61.22
2022-07-30T03:27:26.869Z,61.26
2022-07-30T03:28:34.079Z,61.32
2022-07-30T03:29:38.740Z,61.61
2022-07-30T03:30:44.679Z,60.91
2022-07-30T03:31:47.613Z,61.58
2022-07-30T03:32:52.896Z,61.25
2022-07-30T03:33:55.445Z,61.26
2022-07-30T03:35:05.683Z,61.30
2022-07-30T03:36:09.965Z,61.36
2022-07-30T03:37:13.773Z,60.77
2022-07-30T03:38:16.483Z,60.71
2022-07-30T03:39:30.157Z,61.11
2022-07-30T03:40:34.331Z,61.41
2022-07-30T03:41:38.524Z,61.33
2022-07-30T03:42:43.807Z,61.34
2022-07-30T03:43:46.777Z,61.37
2022-07-30T03:44:51.041Z,61.06
2022-07-30T03:45:56.038Z,61.44
2022-07-30T03:47:02.312Z,61.12
2022-07-30T03:48:09.153Z,61.25
2022-07-30T03:49:14.993Z,61.50
2022-07-30T03:50:21.534Z,61.35
2022-07-30T03:51:25.471Z,61.06
2022-07-30T03:52:37.291Z,61.34
2022-07-30T03:53:46.973Z,61.03
2022-07-30T03:55:10.029Z,61.29
2022-07-30T03:56:21.119Z,61.51
2022-07-30T03:57:34.106Z,61.52
2022-07-30T03:58:38.165Z,61.53
2022-07-30T03:59:43.003Z,61.69
2022-07-30T04:00:48.222Z,61.88
2022-07-30T04:01:53.886Z,61.64
2022-07-30T04:03:25.061Z,61.55
2022-07-30T04:04:30.322Z,60.98
2022-07-30T04:05:41.129Z,61.11
2022-07-30T04:06:45.354Z,61.28
2022-07-30T04:07:49.877Z,61.46
2022-07-30T04:08:56.309Z,61.75
2022-07-30T04:09:58.273Z,61.33
2022-07-30T04:11:19.924Z,61.71
2022-07-30T04:12:44.466Z,61.86
2022-07-30T04:13:46.680Z,61.22
2022-07-30T04:14:53.762Z,61.59
2022-07-30T04:16:05.419Z,61.80
2022-07-30T04:17:36.204Z,61.41
2022-07-30T04:18:47.646Z,61.98
2022-07-30T04:19:54.930Z,61.43
2022-07-30T04:20:58.424Z,61.66
2022-07-30T04:22:04.110Z,61.35
2022-07-30T04:23:09.614Z,61.93
2022-07-30T04:24:14.012Z,61.54
2022-07-30T04:25:22.951Z,61.81
2022-07-30T04:26:27.459Z,61.63
2022-07-30T04:27:31.835Z,61.24
2022-07-30T04:28:36.379Z,61.39
2022-07-30T04:29:38.800Z,61.42
2022-07-30T04:30:42.671Z,61.92
2022-07-30T04:31:44.998Z,62.11
2022-07-30T04:33:09.825Z,61.83
2022-07-30T04:34:49.316Z,61.92
2022-07-30T04:35:55.154Z,61.87
2022-07-30T04:37:12.032Z,61.40
2022-07-30T04:38:14.343Z,61.78
2022-07-30T04:39:20.137Z,62.41
2022-07-30T04:40:22.220Z,61.78
2022-07-30T04:41:25.541Z,61.43
2022-07-30T04:42:50.849Z,61.47
2022-07-30T04:43:54.804Z,61.85
2022-07-30T04:44:58.266Z,61.27
2022-07-30T04:46:07.788Z,62.12
2022-07-30T04:47:11.043Z,61.81
2022-07-30T04:48:26.699Z,62.08
2022-07-30T04:49:30.277Z,61.88
2022-07-30T04:50:35.966Z,61.56
2022-07-30T04:51:43.606Z,62.30
2022-07-30T04:52:46.462Z,61.24
2022-07-30T04:53:54.812Z,61.15
2022-07-30T04:54:59.624Z,61.31
2022-07-30T04:56:05.328Z,61.22
2022-07-30T04:57:09.239Z,61.55
2022-07-30T04:58:16.293Z,61.48
2022-07-30T04:59:20.405Z,61.51
2022-07-30T05:00:23.621Z,61.65
2022-07-30T05:01:34.140Z,61.74
2022-07-30T05:02:45.274Z,61.41
2022-07-30T05:03:51.314Z,61.31
2022-07-30T05:04:56.035Z,61.40
2022-07-30T05:06:00.781Z,61.17
2022-07-30T05:07:08.693Z,61.61
2022-07-30T05:08:12.968Z,61.29
2022-07-30T05:09:17.268Z,61.53
2022-07-30T05:10:20.290Z,61.52
2022-07-30T05:11:23.722Z,61.48
2022-07-30T05:12:32.837Z,61.38
2022-07-30T05:13:38.362Z,61.41
2022-07-30T05:14:48.101Z,61.17
2022-07-30T05:15:51.580Z,61.57
2022-07-30T05:16:56.075Z,61.20
2022-07-30T05:17:59.097Z,61.26
2022-07-30T05:19:07.478Z,61.26
2022-07-30T05:20:12.379Z,61.82
2022-07-30T05:21:29.760Z,61.39
2022-07-30T05:22:32.133Z,61.34
2022-07-30T05:23:35.308Z,61.43
2022-07-30T05:24:45.321Z,60.99
2022-07-30T05:25:48.248Z,60.99
2022-07-30T05:26:57.233Z,61.48
2022-07-30T05:28:01.790Z,61.51
2022-07-30T05:29:07.268Z,61.23
2022-07-30T05:30:24.101Z,61.19
2022-07-30T05:31:33.199Z,60.62
2022-07-30T05:32:37.709Z,60.98
2022-07-30T05:33:43.398Z,61.06
2022-07-30T05:34:53.036Z,60.91
2022-07-30T05:35:55.037Z,61.22
2022-07-30T05:36:58.595Z,61.23
2022-07-30T05:38:01.362Z,60.96
2022-07-30T05:39:09.748Z,61.65
2022-07-30T05:40:22.139Z,61.67
2022-07-30T05:41:44.276Z,60.79
2022-07-30T05:42:51.934Z,62.46
2022-07-30T05:43:55.882Z,61.16
2022-07-30T05:45:00.255Z,60.86
2022-07-30T05:46:02.501Z,61.27
2022-07-30T05:47:05.519Z,61.41
2022-07-30T05:48:07.585Z,60.40
2022-07-30T05:49:10.583Z,61.56
2022-07-30T05:50:14.261Z,61.38
2022-07-30T05:51:19.357Z,60.87
2022-07-30T05:52:21.274Z,61.58
2022-07-30T05:53:24.488Z,60.95
2022-07-30T05:54:56.089Z,60.58
2022-07-30T05:56:16.745Z,61.15
2022-07-30T05:57:43.068Z,61.11
2022-07-30T05:58:45.052Z,60.84
2022-07-30T05:59:52.069Z,60.63
2022-07-30T06:00:59.306Z,60.79
2022-07-30T06:02:06.225Z,61.27
2022-07-30T06:03:29.447Z,62.26
2022-07-30T06:04:52.599Z,61.49
2022-07-30T06:05:56.235Z,61.44
2022-07-30T06:06:59.339Z,60.91
2022-07-30T06:08:02.027Z,61.50
2022-07-30T06:09:06.518Z,61.14
2022-07-30T06:10:08.821Z,60.94
2022-07-30T06:11:13.054Z,61.38
2022-07-30T06:12:15.814Z,62.47
2022-07-30T06:13:19.095Z,60.83
2022-07-30T06:14:21.254Z,61.50
2022-07-30T06:15:25.944Z,61.79
2022-07-30T06:16:29.504Z,61.22
2022-07-30T06:17:32.377Z,60.77
2022-07-30T06:18:58.067Z,61.79
2022-07-30T06:20:17.692Z,60.96
2022-07-30T06:22:06.321Z,61.15
2022-07-30T06:23:12.210Z,60.97
2022-07-30T06:24:37.958Z,61.83
2022-07-30T06:25:49.541Z,61.91
2022-07-30T06:26:52.101Z,60.95
2022-07-30T06:27:56.053Z,61.61
2022-07-30T06:28:58.002Z,61.68
2022-07-30T06:30:08.483Z,60.58
2022-07-30T06:31:10.769Z,60.66
2022-07-30T06:32:13.824Z,61.33
2022-07-30T06:33:15.700Z,61.73
2022-07-30T06:34:18.656Z,61.90
2022-07-30T06:35:22.783Z,61.34
2022-07-30T06:36:24.794Z,62.27
2022-07-30T06:37:58.846Z,61.15
2022-07-30T06:39:05.021Z,60.98
2022-07-30T06:40:27.865Z,61.25
2022-07-30T06:41:40.466Z,60.03
2022-07-30T06:42:43.500Z,60.46
2022-07-30T06:44:08.480Z,60.73
2022-07-30T06:45:30.122Z,60.39
2022-07-30T06:46:56.324Z,60.81
2022-07-30T06:48:00.990Z,59.77
2022-07-30T06:49:07.186Z,59.34
2022-07-30T06:50:10.138Z,59.12
2022-07-30T06:51:14.593Z,60.35
2022-07-30T06:52:18.854Z,59.21
2022-07-30T06:53:28.148Z,60.08
2022-07-30T06:54:49.180Z,59.30
2022-07-30T06:56:00.237Z,59.28
2022-07-30T06:57:09.700Z,59.17
2022-07-30T06:58:11.936Z,59.34
2022-07-30T06:59:57.196Z,59.61
2022-07-30T07:01:16.037Z,59.03
2022-07-30T07:02:18.030Z,58.96
2022-07-30T07:03:39.642Z,59.30
2022-07-30T07:04:43.244Z,59.28
2022-07-30T07:05:46.393Z,58.75
2022-07-30T07:06:48.290Z,59.02
2022-07-30T07:08:00.075Z,59.98
2022-07-30T07:09:09.609Z,59.96
2022-07-30T07:10:21.408Z,58.55
2022-07-30T07:11:28.974Z,58.81
2022-07-30T07:12:33.614Z,60.39
2022-07-30T07:13:35.902Z,60.43
2022-07-30T07:14:42.710Z,59.78
2022-07-30T07:15:44.865Z,60.19
2022-07-30T07:16:53.045Z,59.40
2022-07-30T07:18:15.453Z,60.37
2022-07-30T07:19:59.726Z,59.87
2022-07-30T07:20:48.696Z,58.40
2022-07-30T07:21:50.544Z,59.91
2022-07-30T07:22:53.515Z,58.12
2022-07-30T07:23:55.659Z,58.83
2022-07-30T07:25:18.494Z,59.26
2022-07-30T07:26:20.557Z,59.54
2022-07-30T07:27:23.793Z,58.63
2022-07-30T07:28:33.487Z,58.98
2022-07-30T07:29:37.313Z,59.46
2022-07-30T07:30:39.349Z,59.52
2022-07-30T07:32:06.472Z,59.16
2022-07-30T07:33:06.106Z,59.83
2022-07-30T07:34:09.151Z,58.98
2022-07-30T07:35:12.300Z,59.90
2022-07-30T07:36:16.836Z,59.03
2022-07-30T07:37:18.860Z,58.56
2022-07-30T07:38:22.948Z,59.98
2022-07-30T07:39:26.085Z,59.76
2022-07-30T07:40:30.331Z,59.12
2022-07-30T07:41:48.241Z,58.72
2022-07-30T07:42:54.430Z,58.22
2022-07-30T07:43:56.364Z,58.10
2022-07-30T07:45:08.908Z,59.13
2022-07-30T07:46:33.818Z,58.29
2022-07-30T07:47:43.801Z,59.32
2022-07-30T07:49:16.263Z,58.76
2022-07-30T07:50:24.896Z,59.43
2022-07-30T07:51:46.862Z,58.12
2022-07-30T07:52:52.716Z,58.70
2022-07-30T07:54:19.877Z,58.76
2022-07-30T07:55:18.729Z,58.68
2022-07-30T07:56:22.276Z,57.98
2022-07-30T07:57:25.590Z,59.05
2022-07-30T07:58:31.082Z,59.43
2022-07-30T07:59:40.619Z,59.53
2022-07-30T08:00:47.026Z,59.18
2022-07-30T08:01:50.511Z,59.18
2022-07-30T08:02:52.473Z,59.26
2022-07-30T08:03:55.561Z,59.96
2022-07-30T08:05:18.326Z,59.29
2022-07-30T08:06:47.514Z,58.96
2022-07-30T08:08:15.317Z,59.41
2022-07-30T08:09:51.839Z,59.80
2022-07-30T08:11:17.594Z,59.00
2022-07-30T08:12:57.243Z,59.22
2022-07-30T08:14:18.597Z,58.56
2022-07-30T08:15:55.613Z,59.92
2022-07-30T08:17:18.539Z,58.84
2022-07-30T08:18:42.216Z,58.89
2022-07-30T08:19:52.115Z,59.28
2022-07-30T08:20:58.314Z,58.39
2022-07-30T08:22:06.430Z,58.70
2022-07-30T08:23:09.491Z,58.42
2022-07-30T08:24:11.474Z,58.38
2022-07-30T08:25:24.153Z,58.07
2022-07-30T08:26:28.142Z,58.21
2022-07-30T08:27:30.436Z,58.11
2022-07-30T08:28:36.944Z,58.59
2022-07-30T08:29:41.771Z,58.94
2022-07-30T08:30:45.139Z,58.48
2022-07-30T08:31:47.140Z,58.06
2022-07-30T08:32:50.414Z,58.34
2022-07-30T08:33:52.426Z,58.24
2022-07-30T08:34:55.401Z,58.93
2022-07-30T08:35:59.362Z,58.03
2022-07-30T08:37:07.054Z,57.64
2022-07-30T08:38:10.910Z,57.82
2022-07-30T08:39:13.556Z,57.69
2022-07-30T08:40:19.492Z,57.05
2022-07-30T08:41:36.482Z,56.40
2022-07-30T08:42:39.901Z,57.00
2022-07-30T08:43:43.306Z,57.13
2022-07-30T08:44:47.185Z,57.36
2022-07-30T08:45:52.163Z,57.76
2022-07-30T08:47:19.514Z,58.21
2022-07-30T08:48:53.122Z,57.66
2022-07-30T08:50:01.434Z,57.60
2022-07-30T08:51:06.257Z,58.41
2022-07-30T08:52:10.371Z,57.59
2022-07-30T08:53:17.931Z,57.54
2022-07-30T08:54:20.369Z,57.42
2022-07-30T08:55:23.971Z,56.69
2022-07-30T08:56:26.174Z,56.93
2022-07-30T08:57:31.425Z,57.07
2022-07-30T08:58:35.055Z,57.69
2022-07-30T09:00:00.801Z,57.51
2022-07-30T09:01:05.162Z,56.08
2022-07-30T09:02:12.086Z,56.40
2022-07-30T09:03:29.496Z,56.48
2022-07-30T09:04:37.216Z,55.90
2022-07-30T09:05:39.340Z,56.40
2022-07-30T09:06:42.300Z,56.39
2022-07-30T09:07:45.369Z,55.00
2022-07-30T09:08:53.881Z,55.90
2022-07-30T09:09:56.657Z,56.37
2022-07-30T09:11:00.124Z,55.98
2022-07-30T09:12:02.391Z,56.42
2022-07-30T09:13:06.990Z,56.54
2022-07-30T09:14:10.052Z,56.88
2022-07-30T09:15:16.469Z,56.62
2022-07-30T09:16:21.345Z,56.22
2022-07-30T09:17:25.056Z,55.92
2022-07-30T09:18:33.949Z,55.83
2022-07-30T09:19:36.069Z,55.62
2022-07-30T09:20:39.250Z,56.36
2022-07-30T09:21:55.746Z,56.14
2022-07-30T09:23:07.425Z,56.35
2022-07-30T09:24:43.109Z,56.43
2022-07-30T09:26:06.390Z,56.23
2022-07-30T09:27:14.148Z,55.03
2022-07-30T09:28:34.964Z,55.41
2022-07-30T09:29:57.342Z,55.82
2022-07-30T09:31:21.199Z,56.02
2022-07-30T09:32:51.313Z,53.49
2022-07-30T09:34:26.237Z,54.45
2022-07-30T09:35:42.187Z,54.59
2022-07-30T09:36:46.909Z,54.94
2022-07-30T09:38:10.103Z,54.70
2022-07-30T09:39:35.451Z,53.93
2022-07-30T09:40:50.997Z,53.86
2022-07-30T09:42:19.992Z,54.27
2022-07-30T09:43:27.213Z,53.76
2022-07-30T09:44:36.781Z,54.45
2022-07-30T09:45:57.406Z,53.98
2022-07-30T09:47:02.911Z,52.94
2022-07-30T09:48:21.217Z,54.63
2022-07-30T09:49:26.276Z,54.71
2022-07-30T09:50:30.090Z,54.90
2022-07-30T09:53:11.958Z,53.79
2022-07-30T09:54:19.015Z,53.78
2022-07-30T09:55:31.802Z,54.70
2022-07-30T09:56:36.520Z,53.93
2022-07-30T09:57:58.738Z,53.75
2022-07-30T09:59:03.576Z,53.27
2022-07-30T10:00:26.189Z,54.23
2022-07-30T10:01:54.923Z,53.21
2022-07-30T10:03:33.599Z,52.99
2022-07-30T10:04:56.517Z,53.44
2022-07-30T10:06:03.069Z,53.71
2022-07-30T10:07:25.435Z,53.75
2022-07-30T10:08:41.438Z,53.13
2022-07-30T10:09:45.435Z,51.38
2022-07-30T10:10:51.137Z,53.62
2022-07-30T10:11:55.345Z,52.10
2022-07-30T10:13:01.089Z,52.05
2022-07-30T10:14:04.590Z,52.27
2022-07-30T10:15:10.162Z,51.53
2022-07-30T10:16:16.658Z,52.38
2022-07-30T10:17:20.217Z,52.13
2022-07-30T10:18:49.865Z,52.46
2022-07-30T10:20:12.422Z,53.25
2022-07-30T10:21:36.097Z,52.43
2022-07-30T10:22:56.927Z,52.28
2022-07-30T10:24:12.175Z,51.97
2022-07-30T10:25:55.075Z,51.12
2022-07-30T10:27:16.773Z,52.04
2022-07-30T10:28:45.302Z,50.96
2022-07-30T10:29:48.219Z,52.52
2022-07-30T10:30:52.069Z,52.20
2022-07-30T10:31:55.666Z,51.74
2022-07-30T10:32:58.773Z,52.13
2022-07-30T10:34:05.444Z,50.78
2022-07-30T10:35:10.079Z,52.35
2022-07-30T10:36:13.372Z,50.83
2022-07-30T10:37:16.817Z,50.75
2022-07-30T10:38:25.067Z,51.45
2022-07-30T10:39:29.930Z,51.71
2022-07-30T10:40:43.085Z,51.47
2022-07-30T10:41:54.284Z,51.80
2022-07-30T10:43:24.441Z,51.80
2022-07-30T10:44:48.922Z,51.51
2022-07-30T10:46:00.659Z,51.53
2022-07-30T10:47:09.328Z,50.60
2022-07-30T10:48:13.984Z,50.25
2022-07-30T10:49:19.278Z,50.81
2022-07-30T10:50:26.854Z,50.87
2022-07-30T10:51:43.243Z,50.51
2022-07-30T10:52:52.075Z,50.13
2022-07-30T10:53:55.123Z,50.10
2022-07-30T10:54:58.265Z,51.22
2022-07-30T10:56:13.464Z,51.69
2022-07-30T10:57:32.471Z,51.93
2022-07-30T10:58:59.002Z,51.53
2022-07-30T11:00:15.628Z,51.47
2022-07-30T11:01:20.714Z,51.38
2022-07-30T11:02:26.470Z,50.87
2022-07-30T11:03:41.432Z,49.87
2022-07-30T11:04:48.918Z,49.64
2022-07-30T11:06:13.763Z,48.65
2022-07-30T11:07:29.530Z,50.21
2022-07-30T11:08:42.630Z,49.92
2022-07-30T11:09:45.081Z,48.90
2022-07-30T11:12:02.089Z,50.12
2022-07-30T11:13:09.183Z,48.81
2022-07-30T11:14:13.614Z,48.87
2022-07-30T11:15:18.248Z,49.57
2022-07-30T11:16:23.409Z,50.44
2022-07-30T11:17:25.424Z,49.99
2022-07-30T11:18:29.605Z,48.94
2022-07-30T11:19:56.151Z,49.08
2022-07-30T11:21:21.327Z,49.77
2022-07-30T11:22:28.483Z,49.88
2022-07-30T11:23:39.416Z,50.19
2022-07-30T11:24:45.528Z,50.23
2022-07-30T11:25:52.017Z,49.96
2022-07-30T11:26:57.126Z,49.56
2022-07-30T11:28:00.762Z,49.29
2022-07-30T11:29:05.715Z,50.54
2022-07-30T11:30:32.494Z,50.36
2022-07-30T11:31:56.639Z,50.89
2022-07-30T11:33:32.905Z,51.07
2022-07-30T11:34:36.581Z,50.13
2022-07-30T11:35:42.074Z,49.72
2022-07-30T11:37:18.585Z,49.09
2022-07-30T11:38:25.489Z,50.48
2022-07-30T11:40:06.647Z,49.01
2022-07-30T11:41:12.865Z,48.75
2022-07-30T11:42:25.311Z,48.11
2022-07-30T11:43:35.231Z,48.78
2022-07-30T11:44:38.867Z,50.42
2022-07-30T11:45:42.359Z,50.24
2022-07-30T11:46:50.150Z,49.71
2022-07-30T11:47:56.679Z,49.52
2022-07-30T11:49:01.386Z,49.04
2022-07-30T11:50:04.918Z,48.78
2022-07-30T11:51:08.694Z,47.83
2022-07-30T11:52:12.472Z,48.17
2022-07-30T11:53:18.996Z,47.77
2022-07-30T11:54:21.736Z,47.74
2022-07-30T11:55:28.004Z,48.23
2022-07-30T11:56:31.522Z,48.72
2022-07-30T11:57:42.771Z,49.70
2022-07-30T11:58:45.739Z,48.42
2022-07-30T11:59:54.557Z,47.84
2022-07-30T12:01:00.987Z,47.64
2022-07-30T12:02:03.309Z,46.86
2022-07-30T12:03:14.397Z,47.90
2022-07-30T12:04:16.607Z,48.62
2022-07-30T12:05:26.823Z,47.16
2022-07-30T12:06:31.978Z,47.33
2022-07-30T12:07:35.349Z,47.86
2022-07-30T12:08:42.209Z,47.61
2022-07-30T12:09:44.094Z,47.10
2022-07-30T12:10:57.953Z,46.84
2022-07-30T12:12:02.316Z,47.47
2022-07-30T12:13:08.706Z,48.16
2022-07-30T12:14:11.669Z,45.93
2022-07-30T12:15:29.375Z,46.13
2022-07-30T12:16:34.531Z,46.78
2022-07-30T12:17:44.090Z,45.50
2022-07-30T12:18:48.590Z,46.29
2022-07-30T12:19:51.459Z,45.43
2022-07-30T12:20:57.511Z,45.25
2022-07-30T12:22:01.219Z,44.73
2022-07-30T12:23:10.505Z,44.56
2022-07-30T12:24:13.675Z,45.40
2022-07-30T12:25:16.061Z,45.42
2022-07-30T12:26:23.090Z,45.68
2022-07-30T12:27:26.259Z,46.24
2022-07-30T12:28:32.933Z,45.66
2022-07-30T12:29:35.668Z,46.66
2022-07-30T12:30:40.230Z,46.79
2022-07-30T12:31:45.189Z,46.58
2022-07-30T12:32:47.489Z,46.67
2022-07-30T12:33:50.467Z,46.72
2022-07-30T12:34:55.949Z,46.97
2022-07-30T12:36:00.691Z,46.50
2022-07-30T12:37:10.164Z,46.64
2022-07-30T12:38:15.717Z,46.41
2022-07-30T12:39:22.607Z,45.73
2022-07-30T12:40:26.706Z,46.31
2022-07-30T12:41:51.537Z,45.55
2022-07-30T12:42:53.824Z,46.48
2022-07-30T12:43:57.370Z,46.07
2022-07-30T12:44:59.926Z,46.46
2022-07-30T12:46:02.940Z,46.62
2022-07-30T12:47:06.236Z,46.31
2022-07-30T12:48:11.991Z,45.77
2022-07-30T12:49:22.148Z,46.46
2022-07-30T12:50:26.892Z,46.52
2022-07-30T12:51:32.591Z,46.05
2022-07-30T12:52:39.018Z,46.25
2022-07-30T12:53:42.468Z,46.57
2022-07-30T12:54:45.336Z,47.04
2022-07-30T12:55:47.299Z,46.34
2022-07-30T12:57:01.473Z,46.38
2022-07-30T12:58:08.603Z,46.13
2022-07-30T12:59:21.658Z,46.27
2022-07-30T13:00:26.596Z,47.15
2022-07-30T13:01:41.943Z,46.66
2022-07-30T13:02:44.986Z,46.00
2022-07-30T13:03:48.105Z,45.13
2022-07-30T13:05:10.158Z,45.57
2022-07-30T13:06:19.267Z,47.00
2022-07-30T13:07:21.302Z,46.83
2022-07-30T13:08:53.999Z,46.51
2022-07-30T13:10:10.973Z,46.54
2022-07-30T13:11:13.645Z,44.87
2022-07-30T13:12:16.487Z,45.47
2022-07-30T13:13:18.395Z,45.17
2022-07-30T13:14:26.574Z,45.56
2022-07-30T13:15:28.806Z,45.67
2022-07-30T13:16:33.034Z,44.71
2022-07-30T13:17:37.782Z,45.42
2022-07-30T13:18:41.682Z,45.39
2022-07-30T13:19:44.916Z,44.59
2022-07-30T13:20:49.421Z,45.63
2022-07-30T13:21:52.667Z,45.00
2022-07-30T13:22:56.867Z,44.71
2022-07-30T13:24:07.454Z,45.56
2022-07-30T13:25:12.061Z,46.28
2022-07-30T13:26:14.956Z,46.08
2022-07-30T13:27:17.057Z,45.68
2022-07-30T13:28:20.049Z,45.62
2022-07-30T13:29:21.916Z,45.79
2022-07-30T13:30:24.702Z,44.57
2022-07-30T13:31:26.922Z,44.45
2022-07-30T13:32:29.820Z,46.15
2022-07-30T13:33:32.838Z,45.28
2022-07-30T13:34:34.859Z,45.56
2022-07-30T13:35:37.882Z,45.71
2022-07-30T13:36:41.738Z,45.35
2022-07-30T13:37:43.627Z,46.03
2022-07-30T13:38:47.000Z,45.07
2022-07-30T13:39:56.619Z,45.36
2022-07-30T13:41:02.466Z,45.65
2022-07-30T13:42:06.011Z,46.35
2022-07-30T13:43:08.400Z,44.46
2022-07-30T13:44:11.272Z,45.00
2022-07-30T13:45:13.153Z,44.64
2022-07-30T13:46:16.071Z,44.96
2022-07-30T13:47:18.121Z,45.58
2022-07-30T13:48:21.273Z,45.29
2022-07-30T13:49:23.242Z,45.66
2022-07-30T13:50:26.228Z,45.63
2022-07-30T13:51:28.169Z,45.30
2022-07-30T13:52:31.109Z,45.89
2022-07-30T13:53:33.688Z,45.01
2022-07-30T13:54:36.871Z,44.33
2022-07-30T13:55:42.580Z,45.13
2022-07-30T13:56:44.594Z,45.19
2022-07-30T13:57:47.575Z,44.67
2022-07-30T13:58:49.507Z,45.05
2022-07-30T13:59:52.603Z,44.48
2022-07-30T14:00:54.600Z,43.70
2022-07-30T14:01:57.707Z,45.01
2022-07-30T14:03:00.690Z,44.52
2022-07-30T14:04:03.733Z,44.88
2022-07-30T14:05:07.179Z,44.55
2022-07-30T14:06:11.500Z,44.80
2022-07-30T14:07:14.549Z,45.54
2022-07-30T14:08:16.496Z,45.24
2022-07-30T14:09:19.407Z,44.58
2022-07-30T14:10:22.798Z,44.48
2022-07-30T14:11:27.031Z,44.38
2022-07-30T14:12:28.982Z,44.23
2022-07-30T14:13:32.579Z,43.86
2022-07-30T14:14:34.616Z,44.28
2022-07-30T14:15:39.082Z,44.26
2022-07-30T14:16:45.615Z,46.89
2022-07-30T14:17:56.461Z,45.00
2022-07-30T14:18:58.904Z,44.27
2022-07-30T14:20:01.827Z,44.26
2022-07-30T14:21:04.872Z,43.21
2022-07-30T14:22:06.858Z,43.47
2022-07-30T14:23:10.080Z,44.76
2022-07-30T14:24:12.927Z,43.37
2022-07-30T14:25:16.036Z,43.43
2022-07-30T14:26:19.071Z,43.97
2022-07-30T14:27:23.402Z,43.67
2022-07-30T14:28:25.453Z,44.77
2022-07-30T14:29:28.813Z,44.57
2022-07-30T14:30:30.776Z,43.80
2022-07-30T14:31:33.794Z,43.72
2022-07-30T14:32:35.861Z,45.10
2022-07-30T14:33:38.916Z,45.18
2022-07-30T14:34:41.204Z,44.70
2022-07-30T14:35:52.260Z,45.28
2022-07-30T14:36:54.147Z,44.83